createdAt,value
2018-12-01T04:10:18.613Z,-1.30
2018-12-01T06:02:57.988Z,-1.50
2018-12-01T11:19:11.491Z,4.30
2018-12-01T11:29:12.738Z,4.20
2018-12-01T11:39:14.001Z,4.00
2018-12-01T11:49:15.299Z,4.40
2018-12-01T11:59:20.944Z,5.00
2018-12-01T12:19:29.980Z,5.20
2018-12-01T12:29:31.248Z,5.10
2018-12-01T12:39:32.518Z,4.80
2018-12-01T12:49:33.786Z,4.00
2018-12-01T12:59:35.837Z,4.00
2018-12-01T13:09:37.133Z,3.90
2018-12-01T13:19:38.418Z,4.70
2018-12-01T13:29:39.692Z,4.70
2018-12-01T13:39:41.389Z,4.40
2018-12-01T13:49:46.848Z,4.30
2018-12-01T13:59:48.117Z,3.60
2018-12-01T14:09:52.869Z,3.60
2018-12-01T14:19:54.910Z,3.10
2018-12-01T14:29:56.202Z,3.10
2018-12-01T14:39:57.598Z,2.80
2018-12-01T14:49:58.883Z,2.50
2018-12-01T15:00:00.339Z,2.40
2018-12-01T15:10:01.646Z,2.00
2018-12-01T15:20:02.961Z,1.70
2018-12-01T15:30:07.100Z,1.30
2018-12-01T17:21:20.339Z,0.00
2018-12-01T17:31:21.613Z,-0.10
2018-12-01T17:41:22.877Z,0.00
2018-12-01T17:51:24.169Z,0.10
2018-12-01T18:01:25.450Z,0.10
2018-12-01T18:11:29.639Z,0.00
2018-12-01T18:41:44.241Z,-0.20
2018-12-01T19:01:56.687Z,-0.30
2018-12-01T19:11:57.989Z,-0.50
2018-12-01T19:21:59.299Z,-0.50
2018-12-01T19:32:00.585Z,-0.60
2018-12-01T19:42:01.937Z,-0.40
2018-12-01T19:52:03.223Z,-0.60
2018-12-01T20:02:04.610Z,-0.50
2018-12-01T20:12:05.922Z,-0.60
2018-12-01T20:22:07.335Z,-0.80
2018-12-01T20:32:09.399Z,-1.00
2018-12-01T20:42:10.790Z,-1.00
2018-12-01T20:52:12.117Z,-1.10
2018-12-01T21:02:13.401Z,-1.30
2018-12-01T21:12:14.697Z,-1.30
2018-12-01T21:22:16.015Z,-1.40
2018-12-01T21:32:17.291Z,-1.20
2018-12-01T21:42:18.633Z,-1.40
2018-12-01T21:52:20.742Z,-1.60
2018-12-01T22:02:22.073Z,-1.60
2018-12-01T22:12:23.375Z,-1.50
2018-12-01T22:22:24.738Z,-1.50
2018-12-01T22:32:26.146Z,-1.40
2018-12-01T22:42:27.551Z,-1.80
2018-12-01T22:52:29.013Z,-2.00
2018-12-01T23:12:37.218Z,-1.80
2018-12-01T23:22:38.478Z,-1.50
2018-12-01T23:32:39.732Z,-1.40
2018-12-01T23:42:40.979Z,-1.00
2018-12-01T23:52:42.249Z,-1.00
